Terminal Aerodrome Forecast
Issued by NWS Louisville, KY

Home | Current Version | Previous Version | Text Only | Print | Product List | Glossary On
Versions: 1 2 3 4 5 6 7 8 9 10 11 12
000
FTUS43 KLMK 211122
TAFLEX
TAF
KLEX 211122Z 2112/2212 20009KT P6SM SCT250
     FM211500 21014G22KT P6SM FEW120 BKN250
     FM212300 22009KT P6SM FEW110 BKN250
     FM220400 30010KT P6SM SCT050 BKN100=

USA.gov is the U.S. government's official web portal to all federal, state and local government web resources and services.